Time;durP1;ratioP1;P1;durP2;ratioP2;P2;SDS_P1;SDS_P2;PMS_P1;PMS_P2;Temp;Humidity;BMP_temperature;BMP_pressure;BME280_temperature;BME280_humidity;BME280_pressure;Samples;Min_cycle;Max_cycle;Signal;HPM_P1;HPM_P2
2021/07/02 00:02:09;;;;;;;23.85;10.10;;;;;;;19.27;63.54;100603.56;4991658;28;20081;-66
2021/07/02 00:04:36;;;;;;;21.60;10.32;;;;;;;19.37;63.47;100608.03;4977782;28;20161;-71
2021/07/02 00:07:04;;;;;;;25.55;10.90;;;;;;;19.41;63.55;100609.81;4993130;28;20117;-67
2021/07/02 00:09:31;;;;;;;17.92;9.25;;;;;;;19.43;63.21;100609.50;4987114;28;20140;-74
2021/07/02 00:11:58;;;;;;;13.13;8.18;;;;;;;19.36;62.81;100600.72;4992028;28;20418;-70
2021/07/02 00:14:25;;;;;;;14.40;8.68;;;;;;;19.26;62.64;100587.75;4987826;28;20046;-65
2021/07/02 00:16:52;;;;;;;16.08;8.45;;;;;;;19.39;62.83;100614.19;4990530;28;20146;-65
2021/07/02 00:19:19;;;;;;;16.63;9.52;;;;;;;19.37;63.07;100600.34;4982025;28;20085;-64
2021/07/02 00:21:46;;;;;;;17.35;8.65;;;;;;;19.35;62.89;100618.84;4983612;28;20078;-65
2021/07/02 00:24:13;;;;;;;18.38;9.90;;;;;;;19.24;62.82;100597.75;4989842;28;20130;-65
2021/07/02 00:26:40;;;;;;;20.80;10.45;;;;;;;19.29;62.83;100609.72;4988022;28;20137;-66
2021/07/02 00:29:06;;;;;;;16.13;8.45;;;;;;;19.28;62.68;100613.72;4995097;28;20050;-65
2021/07/02 00:31:33;;;;;;;17.60;9.02;;;;;;;19.22;62.54;100605.75;4994380;28;20133;-67
2021/07/02 00:34:00;;;;;;;20.65;9.07;;;;;;;19.22;62.48;100598.09;4987350;28;20109;-60
2021/07/02 00:36:27;;;;;;;14.50;7.82;;;;;;;19.19;62.73;100595.94;4994552;28;20133;-60
2021/07/02 00:38:55;;;;;;;17.65;9.38;;;;;;;19.13;62.88;100589.59;4993501;28;20490;-60
2021/07/02 00:41:22;;;;;;;14.82;9.13;;;;;;;19.05;63.12;100587.66;4984815;28;20143;-60
2021/07/02 00:43:49;;;;;;;19.38;9.35;;;;;;;19.11;62.90;100589.13;4982671;28;20134;-60
2021/07/02 00:46:16;;;;;;;17.13;7.68;;;;;;;19.09;62.87;100570.81;4985707;28;20078;-64
2021/07/02 00:48:43;;;;;;;20.63;8.88;;;;;;;19.00;63.11;100562.34;4990090;28;20042;-69
2021/07/02 00:51:10;;;;;;;19.00;8.25;;;;;;;19.07;63.25;100551.31;4981085;28;20078;-63
2021/07/02 00:53:40;;;;;;;15.95;8.25;;;;;;;19.04;63.00;100540.72;4989348;28;20395;-67
2021/07/02 00:56:09;;;;;;;15.98;8.90;;;;;;;19.02;62.96;100543.03;4977770;28;20101;-73
2021/07/02 00:58:36;;;;;;;15.40;8.43;;;;;;;19.02;62.81;100543.03;4989222;28;20141;-75
2021/07/02 01:01:04;;;;;;;12.50;7.22;;;;;;;18.98;62.84;100536.41;4988046;28;20100;-74
2021/07/02 01:03:31;;;;;;;13.20;6.85;;;;;;;18.88;62.70;100536.75;4989272;28;20081;-73
2021/07/02 01:05:57;;;;;;;16.88;8.85;;;;;;;18.67;62.94;100523.28;4993606;28;20097;-75
2021/07/02 01:08:24;;;;;;;15.13;7.80;;;;;;;18.76;63.30;100536.59;4993201;28;20078;-75
2021/07/02 01:10:51;;;;;;;20.65;8.95;;;;;;;18.61;63.10;100516.16;4991757;28;20141;-75
2021/07/02 01:13:18;;;;;;;15.52;8.50;;;;;;;18.64;63.35;100523.97;4979945;28;20121;-70
2021/07/02 01:15:52;;;;;;;18.33;10.15;;;;;;;18.60;63.34;100508.84;4993236;28;20042;-72
2021/07/02 01:18:22;;;;;;;18.95;10.32;;;;;;;18.44;63.15;100483.06;4985987;28;20050;-73
2021/07/02 01:20:50;;;;;;;20.90;9.48;;;;;;;18.72;63.06;100521.47;4989463;28;20055;-71
2021/07/02 01:23:18;;;;;;;20.73;9.70;;;;;;;18.68;63.01;100532.59;4988725;28;20565;-65
2021/07/02 01:25:45;;;;;;;21.13;10.40;;;;;;;18.74;63.18;100547.44;4992118;28;20141;-68
2021/07/02 01:28:13;;;;;;;14.68;9.02;;;;;;;18.69;63.35;100535.09;4989769;28;20042;-63
2021/07/02 01:30:41;;;;;;;19.25;8.48;;;;;;;18.78;63.32;100554.09;4991232;28;20575;-68
2021/07/02 01:33:09;;;;;;;17.40;8.50;;;;;;;18.79;63.68;100552.91;4998028;28;20157;-74
2021/07/02 01:35:36;;;;;;;16.50;8.88;;;;;;;18.70;63.35;100524.63;4992729;28;20133;-63
2021/07/02 01:38:04;;;;;;;21.75;10.45;;;;;;;18.81;63.28;100536.44;4990452;28;20047;-63
2021/07/02 01:40:32;;;;;;;17.98;9.45;;;;;;;18.80;63.02;100541.25;4991596;28;20153;-63
2021/07/02 01:43:00;;;;;;;17.00;9.40;;;;;;;18.74;63.38;100538.97;4991905;28;20133;-64
2021/07/02 01:45:27;;;;;;;15.60;9.02;;;;;;;18.80;63.48;100548.91;4986201;28;20050;-63
2021/07/02 01:47:54;;;;;;;16.42;9.13;;;;;;;18.80;63.39;100546.06;4991982;28;20062;-61
2021/07/02 01:50:25;;;;;;;15.38;8.93;;;;;;;18.81;63.39;100542.09;4993266;28;20137;-61
2021/07/02 01:52:55;;;;;;;18.05;10.68;;;;;;;18.81;63.39;100542.09;4985431;28;20058;-62
2021/07/02 01:55:23;;;;;;;22.48;11.07;;;;;;;18.83;63.29;100546.22;4987719;28;20074;-61
2021/07/02 01:57:50;;;;;;;16.75;10.05;;;;;;;18.85;63.32;100548.75;4989219;28;20042;-62
2021/07/02 02:00:18;;;;;;;20.58;10.52;;;;;;;18.74;63.39;100544.63;4987236;28;20057;-61
2021/07/02 02:02:45;;;;;;;20.33;9.63;;;;;;;18.82;63.71;100547.41;4982289;28;20126;-61
2021/07/02 02:05:12;;;;;;;22.65;10.38;;;;;;;18.76;63.32;100539.44;4993721;28;20071;-61
2021/07/02 02:07:39;;;;;;;23.77;10.95;;;;;;;18.78;63.47;100551.25;4982877;28;20403;-62
2021/07/02 02:10:07;;;;;;;17.23;10.07;;;;;;;18.73;63.54;100526.78;4977124;28;20146;-62
2021/07/02 02:12:34;;;;;;;18.30;10.98;;;;;;;18.73;63.30;100528.78;4987510;28;20125;-62
2021/07/02 02:15:04;;;;;;;19.73;10.35;;;;;;;18.72;63.44;100532.78;4983519;28;20042;-62
2021/07/02 02:17:32;;;;;;;24.13;12.15;;;;;;;18.67;63.24;100526.13;4977438;28;20081;-62
2021/07/02 02:19:59;;;;;;;19.63;11.18;;;;;;;18.64;63.53;100531.63;4991999;28;20129;-62
2021/07/02 02:22:25;;;;;;;19.17;11.02;;;;;;;18.58;63.62;100528.13;4980484;28;20141;-66
2021/07/02 02:24:52;;;;;;;20.30;12.18;;;;;;;18.49;63.36;100510.31;4974300;28;20123;-63
2021/07/02 02:27:20;;;;;;;24.40;11.90;;;;;;;18.43;63.15;100501.22;4988984;28;20047;-64
2021/07/02 02:29:47;;;;;;;19.50;11.18;;;;;;;18.47;63.22;100507.03;4991242;28;20129;-64
2021/07/02 02:32:14;;;;;;;18.80;11.43;;;;;;;18.46;63.66;100520.34;4986578;28;20514;-65
2021/07/02 02:34:40;;;;;;;23.35;12.25;;;;;;;18.45;63.52;100527.13;4988898;28;20066;-64
2021/07/02 02:37:07;;;;;;;24.08;11.95;;;;;;;18.41;63.60;100506.34;4992850;28;20078;-64
2021/07/02 02:39:34;;;;;;;19.73;11.30;;;;;;;18.35;63.77;100493.56;4990560;28;20070;-70
2021/07/02 02:42:01;;;;;;;26.08;13.05;;;;;;;18.35;63.56;100495.56;4989924;28;20137;-71
2021/07/02 02:44:28;;;;;;;22.10;11.52;;;;;;;18.19;64.04;100469.81;4980909;28;20149;-72
2021/07/02 02:46:55;;;;;;;27.05;12.75;;;;;;;18.27;63.92;100496.41;4985451;28;20066;-73
2021/07/02 02:49:22;;;;;;;28.30;13.73;;;;;;;18.14;64.18;100486.94;4979284;28;20145;-70
2021/07/02 02:51:49;;;;;;;21.30;11.32;;;;;;;18.01;64.61;100483.09;4986526;28;20053;-71
2021/07/02 02:54:16;;;;;;;30.85;13.90;;;;;;;18.06;64.39;100499.06;4987975;28;20125;-78
2021/07/02 02:59:28;;;;;;;27.85;13.05;;;;;;;17.92;64.53;100482.28;4991308;28;20138;-64
2021/07/02 03:01:56;;;;;;;22.92;11.65;;;;;;;17.92;64.75;100485.94;4987827;28;20517;-64
2021/07/02 03:04:23;;;;;;;26.85;12.70;;;;;;;18.06;64.58;100499.91;4988322;28;20483;-63
2021/07/02 03:06:50;;;;;;;22.77;12.73;;;;;;;18.07;64.71;100500.72;4987891;28;20051;-63
2021/07/02 03:09:17;;;;;;;21.95;12.38;;;;;;;18.05;64.45;100489.78;4986458;28;20078;-63
2021/07/02 03:11:45;;;;;;;23.20;11.15;;;;;;;18.01;64.39;100477.44;4985636;28;20550;-63
2021/07/02 03:14:12;;;;;;;25.80;11.60;;;;;;;18.11;64.91;100490.41;4977349;28;20126;-64
2021/07/02 03:16:39;;;;;;;18.88;10.90;;;;;;;18.06;64.77;100491.44;4985124;28;20495;-64
2021/07/02 03:19:05;;;;;;;19.50;10.50;;;;;;;18.09;64.54;100493.59;4985927;28;20050;-68
2021/07/02 03:21:32;;;;;;;21.77;10.75;;;;;;;18.20;64.71;100500.56;4991988;28;20093;-66
2021/07/02 03:23:59;;;;;;;19.77;11.02;;;;;;;18.22;64.47;100515.19;4986555;28;20570;-66
2021/07/02 03:26:26;;;;;;;23.40;12.30;;;;;;;18.14;64.30;100495.41;4973769;28;20126;-66
2021/07/02 03:28:53;;;;;;;20.65;11.43;;;;;;;18.20;64.37;100505.38;4981778;28;20129;-66
2021/07/02 03:31:20;;;;;;;15.93;9.70;;;;;;;17.81;64.48;100438.56;4986439;28;20085;-66
2021/07/02 03:33:47;;;;;;;26.00;11.20;;;;;;;18.21;64.76;100492.91;4992519;28;20108;-66
2021/07/02 03:36:14;;;;;;;16.83;9.63;;;;;;;18.25;64.84;100508.03;4981216;28;20138;-64
2021/07/02 03:38:41;;;;;;;19.83;9.90;;;;;;;18.26;64.93;100494.75;4989073;28;20137;-63
2021/07/02 03:41:08;;;;;;;17.08;9.60;;;;;;;18.22;64.45;100503.91;4989466;28;20561;-65
2021/07/02 03:43:35;;;;;;;18.05;8.80;;;;;;;18.21;64.50;100502.22;4989032;28;20138;-67
2021/07/02 03:46:02;;;;;;;24.17;11.20;;;;;;;18.31;64.97;100506.69;4990771;28;20140;-66
2021/07/02 03:48:29;;;;;;;18.50;10.43;;;;;;;18.38;65.08;100517.50;4997459;28;20051;-65
2021/07/02 03:50:56;;;;;;;19.38;9.45;;;;;;;18.40;64.90;100503.88;4990404;28;20589;-64
2021/07/02 03:53:23;;;;;;;23.73;10.40;;;;;;;18.43;64.90;100514.53;4984543;28;20269;-66
2021/07/02 03:55:50;;;;;;;18.45;9.38;;;;;;;18.32;64.85;100491.38;4988819;28;20073;-64
2021/07/02 03:58:16;;;;;;;20.30;9.95;;;;;;;18.42;64.76;100510.00;4990329;28;20081;-68
2021/07/02 04:00:43;;;;;;;16.42;9.45;;;;;;;18.22;64.41;100484.13;4986011;28;20055;-68
2021/07/02 04:03:10;;;;;;;17.85;9.63;;;;;;;18.29;64.77;100503.41;4989166;28;20039;-69
2021/07/02 04:05:41;;;;;;;21.20;10.77;;;;;;;18.29;64.81;100497.75;4988464;28;20050;-66
2021/07/02 04:08:08;;;;;;;17.35;9.95;;;;;;;18.37;64.50;100496.06;4988045;28;20081;-67
2021/07/02 04:10:35;;;;;;;19.73;10.30;;;;;;;18.21;64.62;100479.59;4987704;28;20074;-67
2021/07/02 04:13:02;;;;;;;17.00;9.60;;;;;;;18.46;64.70;100511.84;4989099;28;20085;-66
2021/07/02 04:15:29;;;;;;;17.35;9.85;;;;;;;18.43;64.62;100508.88;4984362;28;20043;-64
2021/07/02 04:17:56;;;;;;;17.23;10.05;;;;;;;18.59;64.37;100526.94;4990661;28;20479;-67
2021/07/02 04:20:23;;;;;;;24.48;10.18;;;;;;;18.70;64.75;100525.44;4989740;28;20077;-63
2021/07/02 04:22:50;;;;;;;19.63;10.50;;;;;;;18.66;64.48;100513.13;4981261;28;20499;-63
2021/07/02 04:25:18;;;;;;;15.63;9.63;;;;;;;18.74;64.54;100510.66;4985693;28;20077;-63
2021/07/02 04:27:44;;;;;;;19.67;9.18;;;;;;;18.82;64.69;100521.94;4974060;28;20129;-63
2021/07/02 04:30:12;;;;;;;20.90;10.85;;;;;;;18.75;64.50;100496.19;4988206;28;20145;-63
2021/07/02 04:32:39;;;;;;;21.85;9.35;;;;;;;18.83;64.57;100511.47;4986751;28;20130;-62
2021/07/02 04:35:09;;;;;;;18.02;9.88;;;;;;;18.76;64.28;100497.81;4989662;28;20074;-63
2021/07/02 04:37:40;;;;;;;21.40;9.85;;;;;;;18.92;64.14;100524.41;4994607;28;20053;-68
2021/07/02 04:40:09;;;;;;;16.17;8.90;;;;;;;18.81;64.05;100496.84;4987271;28;20133;-65
2021/07/02 04:42:37;;;;;;;16.77;8.57;;;;;;;18.77;63.62;100484.50;4983149;28;20133;-65
2021/07/02 04:45:05;;;;;;;18.55;9.07;;;;;;;18.92;63.68;100509.44;4988096;28;20133;-61
2021/07/02 04:47:32;;;;;;;25.17;8.93;;;;;;;18.88;64.10;100497.97;4989700;28;20514;-60
2021/07/02 04:50:00;;;;;;;19.27;9.23;;;;;;;18.98;64.00;100518.59;4985965;28;20051;-62
2021/07/02 04:52:27;;;;;;;16.23;9.52;;;;;;;18.85;63.97;100497.81;5004609;28;20133;-63
2021/07/02 04:54:54;;;;;;;17.20;9.38;;;;;;;18.93;64.13;100528.06;4983623;28;20069;-75
2021/07/02 04:57:21;;;;;;;20.80;10.90;;;;;;;18.76;63.79;100516.81;4991721;28;20145;-69
2021/07/02 04:59:50;;;;;;;25.45;12.02;;;;;;;18.85;63.91;100534.59;4993661;28;20085;-69
2021/07/02 05:02:17;;;;;;;20.87;11.27;;;;;;;18.82;63.73;100529.59;4989693;28;20133;-65
2021/07/02 05:04:44;;;;;;;21.65;11.98;;;;;;;18.87;63.72;100549.22;4992248;28;20350;-66
2021/07/02 05:07:13;;;;;;;26.98;10.38;;;;;;;18.84;64.00;100530.94;4990465;28;20137;-65
2021/07/02 05:09:40;;;;;;;19.97;9.97;;;;;;;18.84;63.72;100524.47;4989492;28;20074;-69
2021/07/02 05:12:10;;;;;;;29.65;12.88;;;;;;;18.87;63.97;100535.06;4994444;28;20292;-72
2021/07/02 05:14:38;;;;;;;20.75;11.27;;;;;;;18.90;63.79;100535.22;4992281;28;20491;-66
2021/07/02 05:17:08;;;;;;;21.48;11.15;;;;;;;18.83;63.53;100519.94;4978957;28;20105;-72
2021/07/02 05:19:35;;;;;;;20.33;10.88;;;;;;;18.76;63.54;100509.16;4991083;28;20129;-66
2021/07/02 05:22:02;;;;;;;21.40;10.50;;;;;;;18.91;63.67;100536.09;4988157;28;20050;-73
2021/07/02 05:24:29;;;;;;;17.55;9.70;;;;;;;18.89;63.51;100533.56;4983515;28;20461;-72
2021/07/02 05:26:56;;;;;;;19.83;10.80;;;;;;;18.82;63.79;100521.13;4990120;28;20085;-66
2021/07/02 05:29:23;;;;;;;25.42;11.82;;;;;;;18.87;63.58;100535.06;4993639;28;20134;-64
2021/07/02 05:31:50;;;;;;;23.50;11.75;;;;;;;18.92;63.62;100538.56;4992509;28;20097;-61
2021/07/02 05:34:16;;;;;;;19.35;10.32;;;;;;;18.98;63.67;100530.72;4991787;28;20140;-64
2021/07/02 05:36:43;;;;;;;25.60;10.52;;;;;;;18.96;63.56;100516.06;4985279;28;20130;-71
2021/07/02 05:39:10;;;;;;;16.42;9.55;;;;;;;18.91;63.29;100504.97;4988367;28;20454;-70
2021/07/02 05:41:37;;;;;;;19.90;10.40;;;;;;;18.90;63.70;100506.94;4988011;28;20054;-71
2021/07/02 05:44:04;;;;;;;17.48;10.75;;;;;;;18.81;63.56;100491.19;4996926;28;20525;-71
2021/07/02 05:46:31;;;;;;;18.00;10.88;;;;;;;18.88;63.79;100511.28;4991443;28;20097;-70
2021/07/02 05:48:58;;;;;;;23.15;10.85;;;;;;;18.66;63.74;100487.66;4988140;28;20655;-70
2021/07/02 05:51:25;;;;;;;21.23;10.20;;;;;;;18.70;64.04;100513.31;4986594;28;20137;-71
2021/07/02 05:53:52;;;;;;;18.27;10.13;;;;;;;18.67;64.65;100523.28;4988742;28;20047;-71
2021/07/02 05:56:20;;;;;;;20.83;10.32;;;;;;;18.62;64.07;100492.34;4982818;28;20133;-70
2021/07/02 05:58:47;;;;;;;17.08;9.63;;;;;;;18.75;64.14;100510.31;4982964;28;20042;-70
2021/07/02 06:01:14;;;;;;;24.25;11.18;;;;;;;18.61;64.03;100499.16;4980154;28;20164;-71
2021/07/02 06:03:40;;;;;;;23.20;11.02;;;;;;;18.72;64.04;100529.97;4984529;28;20042;-71
2021/07/02 06:06:20;;;;;;;16.33;9.90;;;;;;;18.72;63.99;100493.19;4982262;28;20383;-71
2021/07/02 06:08:50;;;;;;;21.55;10.75;;;;;;;18.61;63.95;100504.84;4983698;28;20499;-71
2021/07/02 06:11:16;;;;;;;20.15;10.32;;;;;;;18.35;64.50;100506.88;4990094;28;20495;-70
2021/07/02 06:13:43;;;;;;;26.15;10.23;;;;;;;18.42;64.33;100526.97;4981678;28;20489;-70
2021/07/02 06:16:11;;;;;;;18.20;8.63;;;;;;;18.40;64.63;100518.00;4984101;28;20081;-70
2021/07/02 06:18:38;;;;;;;21.23;10.52;;;;;;;18.19;64.88;100510.22;4986664;28;20491;-70
2021/07/02 06:21:05;;;;;;;21.98;10.50;;;;;;;18.21;64.66;100532.47;4989646;28;20125;-70
2021/07/02 06:23:36;;;;;;;17.95;9.25;;;;;;;18.06;64.75;100528.16;4986212;28;20073;-70
2021/07/02 06:26:05;;;;;;;19.88;10.77;;;;;;;18.08;65.28;100539.13;4982503;28;20458;-70
2021/07/02 06:28:33;;;;;;;25.23;12.30;;;;;;;18.27;65.06;100538.81;4990684;28;20081;-70
2021/07/02 06:31:00;;;;;;;24.88;10.60;;;;;;;18.39;64.56;100548.28;4987706;28;20080;-70
2021/07/02 06:33:27;;;;;;;21.80;9.75;;;;;;;18.49;64.42;100561.22;4984410;28;20039;-70
2021/07/02 06:35:54;;;;;;;20.38;10.48;;;;;;;18.62;64.48;100557.41;4988427;28;20081;-71
2021/07/02 06:38:21;;;;;;;19.65;10.70;;;;;;;18.66;64.08;100532.94;4986541;28;20491;-71
2021/07/02 06:40:48;;;;;;;18.75;9.13;;;;;;;19.03;64.29;100543.84;4986898;28;20077;-70
2021/07/02 06:43:15;;;;;;;19.95;9.30;;;;;;;19.33;63.58;100551.25;4985744;28;20481;-61
2021/07/02 06:45:42;;;;;;;17.75;9.48;;;;;;;19.37;63.28;100559.88;4984581;28;20046;-68
2021/07/02 06:48:09;;;;;;;20.40;9.85;;;;;;;19.27;63.21;100548.94;4985692;28;20138;-70
2021/07/02 06:50:39;;;;;;;18.35;9.90;;;;;;;19.25;63.15;100552.13;5000863;28;20523;-70
2021/07/02 06:53:06;;;;;;;20.42;9.82;;;;;;;19.13;63.24;100561.31;4980949;28;20113;-67
2021/07/02 06:55:34;;;;;;;24.10;10.13;;;;;;;19.12;63.23;100559.66;4985610;28;20047;-72
2021/07/02 06:58:03;;;;;;;19.02;10.05;;;;;;;18.99;63.26;100538.03;4981416;28;20050;-69
2021/07/02 07:00:30;;;;;;;20.77;9.83;;;;;;;19.08;63.13;100561.50;4984212;28;20034;-70
2021/07/02 07:02:57;;;;;;;16.90;9.18;;;;;;;18.86;63.52;100561.72;4986213;28;20483;-74
2021/07/02 07:05:24;;;;;;;17.23;9.43;;;;;;;18.86;63.62;100561.72;4991681;28;20471;-74
2021/07/02 07:07:51;;;;;;;16.73;9.98;;;;;;;19.14;63.35;100573.44;4988424;28;20078;-74
2021/07/02 07:10:18;;;;;;;21.23;11.20;;;;;;;19.23;63.18;100565.78;5007685;28;20074;-75
2021/07/02 07:12:45;;;;;;;17.67;9.77;;;;;;;19.32;62.19;100565.75;4991810;28;20073;-75
2021/07/02 07:15:14;;;;;;;18.25;10.00;;;;;;;19.30;62.60;100579.41;4992474;28;20058;-75
2021/07/02 07:17:41;;;;;;;18.08;9.27;;;;;;;19.37;62.32;100574.88;4989236;28;20065;-75
2021/07/02 07:20:09;;;;;;;21.40;9.50;;;;;;;19.74;62.12;100591.41;4992255;28;20042;-76
2021/07/02 07:22:36;;;;;;;14.20;8.68;;;;;;;20.08;61.50;100596.84;4991534;28;20050;-74
2021/07/02 07:25:03;;;;;;;19.48;9.25;;;;;;;20.75;60.69;100616.88;4985191;28;20149;-74
2021/07/02 07:27:31;;;;;;;16.30;8.93;;;;;;;21.44;59.62;100613.34;4986679;28;20578;-74
2021/07/02 07:29:58;;;;;;;16.23;8.07;;;;;;;21.69;58.71;100614.19;4981415;28;20157;-74
2021/07/02 07:32:24;;;;;;;14.75;7.30;;;;;;;21.66;58.65;100619.75;4980797;28;20422;-72
2021/07/02 07:34:55;;;;;;;22.33;9.60;;;;;;;21.42;58.27;100609.19;4996236;28;20126;-73
2021/07/02 07:37:23;;;;;;;17.67;9.05;;;;;;;21.46;58.59;100630.84;4984532;28;20082;-74
2021/07/02 07:39:50;;;;;;;12.90;7.75;;;;;;;21.35;58.35;100617.47;4996894;28;20125;-74
2021/07/02 07:42:17;;;;;;;13.52;7.80;;;;;;;21.45;58.17;100625.53;4983536;28;20086;-74
2021/07/02 07:44:45;;;;;;;17.38;8.00;;;;;;;21.56;58.05;100631.59;4983435;28;20069;-74
2021/07/02 07:47:12;;;;;;;14.82;7.75;;;;;;;21.60;57.95;100635.38;4994493;28;20090;-75
2021/07/02 07:49:39;;;;;;;16.15;7.70;;;;;;;21.51;57.71;100635.50;4995108;28;20065;-78
2021/07/02 07:52:18;;;;;;;14.32;7.63;;;;;;;21.54;57.54;100640.47;4988019;28;20050;-73
2021/07/02 07:54:45;;;;;;;14.85;8.73;;;;;;;21.56;57.46;100657.16;4979374;28;20126;-75
2021/07/02 07:57:12;;;;;;;18.20;7.57;;;;;;;21.39;57.52;100643.97;4987677;28;20074;-75
2021/07/02 07:59:39;;;;;;;13.05;6.80;;;;;;;21.27;57.73;100627.72;4986197;28;20137;-74
2021/07/02 08:02:07;;;;;;;13.52;7.18;;;;;;;21.60;57.49;100635.38;4984814;28;20058;-75
2021/07/02 08:04:34;;;;;;;12.18;6.43;;;;;;;21.79;57.17;100669.75;4984281;28;20089;-74
2021/07/02 08:07:01;;;;;;;13.60;7.22;;;;;;;21.75;56.76;100654.59;4984829;28;20055;-74
2021/07/02 08:09:32;;;;;;;12.52;6.72;;;;;;;21.84;56.84;100652.44;4989839;28;20046;-75
2021/07/02 08:11:59;;;;;;;12.55;7.05;;;;;;;22.14;56.79;100663.59;4988489;28;20544;-75
2021/07/02 08:14:25;;;;;;;11.65;6.63;;;;;;;22.41;55.91;100665.72;4990230;28;20077;-73
2021/07/02 08:16:52;;;;;;;11.52;6.88;;;;;;;22.60;55.20;100665.09;4986670;28;20155;-70
2021/07/02 08:19:19;;;;;;;15.43;7.35;;;;;;;22.95;55.03;100647.47;4986219;28;20184;-70
2021/07/02 08:21:46;;;;;;;10.27;6.60;;;;;;;23.41;54.25;100668.69;4989452;28;20125;-71
2021/07/02 08:24:13;;;;;;;17.45;7.50;;;;;;;23.47;53.21;100657.06;4988691;28;20077;-69
2021/07/02 08:26:41;;;;;;;20.95;7.30;;;;;;;23.41;53.52;100660.16;4988234;28;20089;-68
2021/07/02 08:29:25;;;;;;;12.57;6.22;;;;;;;23.64;53.24;100673.81;4987189;28;20566;-69
2021/07/02 08:31:56;;;;;;;10.38;6.72;;;;;;;23.62;53.00;100664.78;4989023;28;20130;-69
2021/07/02 08:34:23;;;;;;;12.40;6.85;;;;;;;23.71;52.71;100671.16;4985615;28;20203;-68
2021/07/02 08:36:50;;;;;;;12.38;7.30;;;;;;;24.23;51.78;100675.75;4981621;28;20097;-66
2021/07/02 08:39:17;;;;;;;12.18;6.72;;;;;;;24.86;50.61;100668.25;4980607;28;20093;-69
2021/07/02 08:41:45;;;;;;;10.13;6.32;;;;;;;24.67;50.60;100643.34;4989416;28;20129;-64
2021/07/02 08:44:13;;;;;;;13.93;7.05;;;;;;;24.72;50.90;100669.59;4994480;28;20053;-63
2021/07/02 08:46:42;;;;;;;11.15;7.03;;;;;;;24.85;49.73;100658.00;4990375;28;20051;-64
2021/07/02 08:49:26;;;;;;;12.05;6.78;;;;;;;24.51;50.36;100657.66;4986047;28;20395;-64
2021/07/02 08:51:54;;;;;;;12.73;6.80;;;;;;;24.28;50.24;100649.78;4984589;28;20167;-64
2021/07/02 08:54:21;;;;;;;11.55;6.80;;;;;;;24.61;50.25;100662.78;4984385;28;20043;-65
2021/07/02 08:56:57;;;;;;;9.63;6.13;;;;;;;24.75;49.29;100654.56;4987678;28;20089;-62
2021/07/02 08:59:30;;;;;;;10.65;6.15;;;;;;;25.01;49.40;100650.19;4981985;28;20042;-63
2021/07/02 09:01:57;;;;;;;7.53;4.95;;;;;;;25.34;48.83;100654.56;4988294;28;20053;-67
2021/07/02 09:04:29;;;;;;;7.82;5.10;;;;;;;25.61;47.51;100659.16;4989510;28;20122;-66
2021/07/02 09:07:07;;;;;;;10.70;5.10;;;;;;;25.91;47.47;100642.13;4988498;28;20567;-70
2021/07/02 09:09:47;;;;;;;8.73;5.97;;;;;;;26.13;46.92;100614.69;4986154;28;20074;-69
2021/07/02 09:12:19;;;;;;;9.43;5.18;;;;;;;26.52;46.10;100636.56;4988829;28;20054;-69
2021/07/02 09:14:57;;;;;;;14.68;6.97;;;;;;;26.74;45.83;100637.69;4993478;28;20517;-68
2021/07/02 09:17:24;;;;;;;11.40;5.88;;;;;;;26.64;45.24;100642.06;4993441;28;20085;-69
2021/07/02 09:20:05;;;;;;;11.15;5.82;;;;;;;26.45;45.87;100629.47;4993294;28;20096;-68
2021/07/02 09:22:46;;;;;;;10.90;5.50;;;;;;;26.34;45.39;100633.41;4986231;28;20117;-69
2021/07/02 09:25:27;;;;;;;9.82;5.75;;;;;;;26.16;45.59;100636.84;4986626;28;20555;-69
2021/07/02 09:28:09;;;;;;;9.23;5.30;;;;;;;25.89;45.75;100638.84;4986774;28;20499;-69
2021/07/02 09:30:38;;;;;;;10.90;5.72;;;;;;;25.69;45.40;100615.19;4989582;28;20134;-69
2021/07/02 09:33:19;;;;;;;7.60;4.57;;;;;;;25.65;45.60;100647.78;4987238;28;20038;-69
2021/07/02 09:35:53;;;;;;;8.30;4.25;;;;;;;25.87;45.42;100649.00;4992666;28;20478;-69
2021/07/02 09:38:37;;;;;;;9.52;4.20;;;;;;;26.07;45.20;100644.84;4990945;28;20074;-69
2021/07/02 09:41:05;;;;;;;7.68;3.95;;;;;;;25.91;45.00;100636.41;4988711;28;20062;-62
2021/07/02 09:43:33;;;;;;;10.07;5.18;;;;;;;25.92;45.11;100643.81;4984208;28;20081;-62
2021/07/02 09:46:03;;;;;;;13.02;5.03;;;;;;;25.86;44.93;100633.88;4980597;28;20133;-62
2021/07/02 09:48:40;;;;;;;8.15;4.95;;;;;;;25.92;45.25;100640.13;4988430;28;20490;-62
2021/07/02 09:51:07;;;;;;;9.60;4.50;;;;;;;25.99;44.73;100643.09;4992698;28;20093;-63
2021/07/02 09:53:36;;;;;;;9.95;4.60;;;;;;;25.99;44.20;100640.25;4993028;28;20530;-62
2021/07/02 09:56:22;;;;;;;9.57;6.07;;;;;;;25.94;44.42;100647.09;4990858;28;20053;-62
2021/07/02 09:58:49;;;;;;;7.85;4.95;;;;;;;25.72;45.13;100634.44;4992831;28;20081;-68
2021/07/02 10:01:27;;;;;;;8.93;5.30;;;;;;;25.41;45.34;100634.69;4991225;28;20097;-65
2021/07/02 10:03:54;;;;;;;10.55;5.78;;;;;;;25.25;45.55;100649.06;4992898;28;20060;-66
2021/07/02 10:06:23;;;;;;;9.70;5.43;;;;;;;25.46;45.86;100642.94;4991106;28;20081;-63
2021/07/02 10:08:49;;;;;;;8.82;5.65;;;;;;;25.87;45.07;100666.19;4993410;28;20081;-65
2021/07/02 10:11:17;;;;;;;11.25;6.10;;;;;;;26.41;44.57;100642.13;4985020;28;20126;-63
2021/07/02 10:13:49;;;;;;;9.38;5.15;;;;;;;27.09;43.78;100643.88;4988359;28;20042;-64
2021/07/02 10:16:16;;;;;;;13.40;5.47;;;;;;;27.44;43.17;100642.66;4993084;28;20100;-62
2021/07/02 10:18:47;;;;;;;11.27;5.93;;;;;;;27.91;42.86;100637.41;4983300;28;20089;-65
2021/07/02 10:21:15;;;;;;;10.18;5.70;;;;;;;28.11;41.54;100612.94;4980777;28;20078;-64
2021/07/02 10:23:45;;;;;;;9.65;5.78;;;;;;;27.83;41.86;100613.56;4976905;28;20145;-61
2021/07/02 10:26:15;;;;;;;11.18;5.82;;;;;;;28.12;41.50;100626.06;4987153;28;20118;-63
2021/07/02 10:28:44;;;;;;;;;;;;;;;27.65;42.83;100625.63;4985949;28;20078;-61
2021/07/02 10:31:12;;;;;;;10.15;4.75;;;;;;;27.56;42.15;100613.69;4985188;28;19972;-64
2021/07/02 10:33:45;;;;;;;6.78;4.90;;;;;;;27.76;41.78;100607.72;4982696;28;20086;-65
2021/07/02 10:36:14;;;;;;;8.13;4.18;;;;;;;27.90;41.67;100593.53;4986063;28;20133;-61
2021/07/02 10:38:42;;;;;;;;;;;;;;;27.86;42.06;100601.25;4984060;28;20539;-62
2021/07/02 10:41:14;;;;;;;7.25;3.78;;;;;;;27.96;41.18;100594.78;4985178;28;20386;-61
2021/07/02 10:44:23;;;;;;;8.80;3.63;;;;;;;27.28;41.68;100597.03;4983104;28;20077;-63
2021/07/02 10:46:50;;;;;;;5.88;3.10;;;;;;;27.44;41.35;100608.22;4966562;28;20074;-65
2021/07/02 10:49:17;;;;;;;6.40;3.80;;;;;;;27.48;41.51;100596.78;4965449;28;20533;-61
2021/07/02 10:51:51;;;;;;;7.00;4.70;;;;;;;27.37;41.31;100599.56;4973911;28;20454;-61
2021/07/02 10:54:19;;;;;;;10.38;5.32;;;;;;;27.38;41.37;100604.06;4985188;28;20050;-59
2021/07/02 10:56:58;;;;;;;6.55;3.72;;;;;;;27.20;41.83;100591.59;4984609;28;20095;-59
2021/07/02 10:59:57;;;;;;;7.85;3.72;;;;;;;27.13;41.63;100587.44;4982590;28;20538;-61
2021/07/02 11:02:25;;;;;;;6.80;3.75;;;;;;;27.28;41.80;100554.03;4982232;28;20466;-60
2021/07/02 11:04:54;;;;;;;5.63;4.00;;;;;;;27.80;41.40;100577.88;4984068;28;20042;-70
2021/07/02 11:07:22;;;;;;;9.57;5.57;;;;;;;28.03;41.22;100589.09;4984026;28;20042;-69
2021/07/02 11:09:49;;;;;;;6.63;3.38;;;;;;;27.87;40.99;100591.44;4972383;28;20070;-71
2021/07/02 11:12:18;;;;;;;6.55;2.85;;;;;;;27.48;41.30;100583.28;4984863;28;20084;-70
2021/07/02 11:14:51;;;;;;;7.47;3.13;;;;;;;27.11;41.55;100572.66;4981516;28;20146;-72
2021/07/02 11:17:30;;;;;;;4.35;2.85;;;;;;;26.64;41.53;100574.16;4978367;28;20085;-72
2021/07/02 11:20:08;;;;;;;3.47;2.50;;;;;;;26.37;42.78;100558.22;4979104;28;20078;-63
2021/07/02 11:22:38;;;;;;;7.93;3.58;;;;;;;26.58;42.64;100561.38;5003870;28;20039;-64
2021/07/02 11:25:14;;;;;;;5.93;3.53;;;;;;;26.85;42.96;100569.91;4985142;28;20104;-63
2021/07/02 11:27:57;;;;;;;6.25;3.38;;;;;;;27.42;41.94;100567.66;4987274;28;20126;-63